Time;durP1;ratioP1;P1;durP2;ratioP2;P2;SDS_P1;SDS_P2;PMS_P1;PMS_P2;Temp;Humidity;BMP_temperature;BMP_pressure;BME280_temperature;BME280_humidity;BME280_pressure;Samples;Min_cycle;Max_cycle;Signal;HPM_P1;HPM_P2
2022/02/14 00:00:35;;;;;;;2.80;2.07;;;8.80;82.80;;;;;;5113268;28;20207;-55
2022/02/14 00:03:02;;;;;;;3.60;2.10;;;8.80;82.50;;;;;;5113385;28;20199;-57
2022/02/14 00:05:31;;;;;;;5.43;1.67;;;8.70;82.50;;;;;;5113005;28;20239;-55
2022/02/14 00:07:58;;;;;;;3.30;1.67;;;8.70;82.00;;;;;;5113319;28;20209;-55
2022/02/14 00:10:25;;;;;;;3.67;1.90;;;8.70;82.30;;;;;;5113032;28;20253;-55
2022/02/14 00:12:53;;;;;;;2.40;1.80;;;8.80;81.90;;;;;;5113219;28;20207;-56
2022/02/14 00:15:20;;;;;;;3.30;2.10;;;8.80;81.90;;;;;;5113157;28;20291;-56
2022/02/14 00:17:47;;;;;;;3.33;2.20;;;8.80;81.70;;;;;;5112739;28;20560;-55
2022/02/14 00:20:14;;;;;;;4.07;2.10;;;8.90;81.60;;;;;;5112632;28;20282;-56
2022/02/14 00:22:41;;;;;;;4.20;2.30;;;8.90;81.60;;;;;;5113106;28;20203;-55
2022/02/14 00:25:09;;;;;;;4.20;2.50;;;8.90;81.50;;;;;;5112655;28;20679;-57
2022/02/14 00:27:35;;;;;;;4.07;2.40;;;8.90;82.60;;;;;;5112853;28;20203;-55
2022/02/14 00:30:05;;;;;;;3.53;2.20;;;8.90;83.70;;;;;;5112644;28;20212;-57
2022/02/14 00:32:32;;;;;;;2.70;2.00;;;8.70;84.90;;;;;;5112856;28;20208;-55
2022/02/14 00:34:58;;;;;;;5.30;2.70;;;8.50;85.10;;;;;;5112720;28;20219;-55
2022/02/14 00:37:25;;;;;;;4.67;2.80;;;8.40;87.30;;;;;;5112593;28;20211;-55
2022/02/14 00:39:52;;;;;;;5.57;2.60;;;8.10;90.00;;;;;;5112383;28;20216;-55
2022/02/14 00:42:19;;;;;;;6.20;3.00;;;7.80;90.50;;;;;;5112664;28;20207;-58
2022/02/14 00:44:45;;;;;;;5.47;2.97;;;7.70;91.00;;;;;;5112454;28;20223;-55
2022/02/14 00:47:13;;;;;;;5.10;2.33;;;7.50;90.80;;;;;;5112438;28;20203;-54
2022/02/14 00:49:40;;;;;;;4.33;2.90;;;7.30;91.40;;;;;;5112530;28;20261;-54
2022/02/14 00:52:07;;;;;;;3.60;2.83;;;7.30;90.50;;;;;;5112540;28;20210;-55
2022/02/14 00:54:34;;;;;;;4.33;2.63;;;7.40;90.80;;;;;;5112590;28;20227;-54
2022/02/14 00:57:01;;;;;;;8.10;3.10;;;7.40;91.20;;;;;;5112221;28;20706;-56
2022/02/14 00:59:28;;;;;;;5.33;2.90;;;7.50;90.90;;;;;;5112404;28;20252;-55
2022/02/14 01:01:55;;;;;;;3.47;2.17;;;7.50;90.70;;;;;;5112459;28;20207;-54
2022/02/14 01:04:23;;;;;;;4.73;2.30;;;7.50;89.90;;;;;;5112318;28;20632;-54
2022/02/14 01:06:49;;;;;;;4.23;1.83;;;7.70;89.10;;;;;;5112463;28;20257;-55
2022/02/14 01:09:16;;;;;;;3.77;1.90;;;7.80;86.20;;;;;;5112497;28;20280;-54
2022/02/14 01:11:43;;;;;;;3.90;2.10;;;8.00;84.60;;;;;;5112108;28;20199;-55
2022/02/14 01:14:10;;;;;;;3.40;1.90;;;8.20;83.80;;;;;;5112285;28;20235;-54
2022/02/14 01:16:37;;;;;;;2.60;1.90;;;8.50;84.00;;;;;;5112330;28;20630;-57
2022/02/14 01:19:04;;;;;;;3.83;2.00;;;8.60;82.70;;;;;;5112293;28;20203;-55
2022/02/14 01:21:32;;;;;;;3.27;2.00;;;8.60;82.00;;;;;;5112230;28;20542;-54
2022/02/14 01:23:59;;;;;;;3.70;1.90;;;8.80;82.00;;;;;;5112312;28;20227;-54
2022/02/14 01:26:25;;;;;;;5.47;2.63;;;8.90;82.70;;;;;;5112416;28;20219;-56
2022/02/14 01:28:52;;;;;;;3.17;2.20;;;8.90;85.30;;;;;;5112842;28;20199;-54
2022/02/14 01:31:19;;;;;;;3.33;2.40;;;8.90;82.40;;;;;;5111896;28;20207;-54
2022/02/14 01:33:45;;;;;;;6.07;3.03;;;8.90;83.90;;;;;;5112575;28;20705;-57
2022/02/14 01:36:12;;;;;;;5.43;2.60;;;8.90;85.40;;;;;;5112510;28;20199;-55
2022/02/14 01:38:40;;;;;;;5.13;2.40;;;8.70;85.80;;;;;;5112407;28;20204;-55
2022/02/14 01:41:07;;;;;;;4.87;2.80;;;8.60;85.80;;;;;;5111896;28;20215;-54
2022/02/14 01:43:34;;;;;;;4.90;3.07;;;8.60;84.70;;;;;;5112162;28;20264;-57
2022/02/14 01:46:00;;;;;;;4.40;2.20;;;8.60;84.50;;;;;;5111706;28;20276;-55
2022/02/14 01:48:27;;;;;;;4.50;2.17;;;8.60;85.00;;;;;;5112334;28;20260;-54
2022/02/14 01:50:54;;;;;;;6.00;4.20;;;8.60;84.20;;;;;;5113732;28;20215;-57
2022/02/14 01:53:21;;;;;;;5.80;2.20;;;8.60;83.80;;;;;;5115956;28;20256;-54
2022/02/14 01:55:50;;;;;;;3.57;2.00;;;8.60;83.60;;;;;;5115794;28;20215;-57
2022/02/14 01:58:17;;;;;;;4.43;2.53;;;8.60;83.30;;;;;;5115697;28;20203;-54
2022/02/14 02:00:44;;;;;;;4.80;2.20;;;8.70;81.60;;;;;;5115337;28;20683;-54
2022/02/14 02:03:11;;;;;;;2.80;1.50;;;8.70;80.80;;;;;;5115795;28;20203;-55
2022/02/14 02:05:39;;;;;;;2.70;1.87;;;8.70;79.90;;;;;;5115538;28;20250;-55
2022/02/14 02:08:06;;;;;;;3.43;1.60;;;8.70;79.20;;;;;;5115583;28;20205;-55
2022/02/14 02:10:32;;;;;;;4.37;1.87;;;8.80;78.90;;;;;;5115405;28;20311;-59
2022/02/14 02:13:00;;;;;;;5.43;1.70;;;8.90;78.70;;;;;;5115350;28;20227;-55
2022/02/14 02:15:27;;;;;;;4.33;1.90;;;8.90;78.90;;;;;;5115465;28;20292;-55
2022/02/14 02:17:54;;;;;;;3.60;2.10;;;8.80;79.00;;;;;;5115442;28;20570;-55
2022/02/14 02:20:22;;;;;;;2.83;2.13;;;8.80;79.40;;;;;;5115177;28;20211;-57
2022/02/14 02:22:50;;;;;;;3.10;1.70;;;8.70;79.90;;;;;;5115488;28;20200;-57
2022/02/14 02:25:20;;;;;;;3.93;2.20;;;8.50;80.20;;;;;;5115174;28;20220;-56
2022/02/14 02:27:47;;;;;;;3.10;2.67;;;8.40;81.40;;;;;;5114904;28;20208;-54
2022/02/14 02:30:17;;;;;;;4.20;2.20;;;8.50;81.50;;;;;;5114796;28;20711;-54
2022/02/14 02:32:45;;;;;;;3.93;2.30;;;8.60;81.60;;;;;;5115251;28;20239;-54
2022/02/14 02:35:12;;;;;;;2.13;1.60;;;8.70;82.00;;;;;;5114920;28;20224;-55
2022/02/14 02:37:39;;;;;;;2.93;2.20;;;8.60;82.80;;;;;;5114891;28;20208;-57
2022/02/14 02:40:08;;;;;;;3.67;2.20;;;8.60;83.10;;;;;;5114587;28;20570;-55
2022/02/14 02:42:36;;;;;;;4.47;2.50;;;8.50;83.20;;;;;;5114985;28;20227;-54
2022/02/14 02:45:04;;;;;;;5.03;3.27;;;8.60;83.30;;;;;;5114782;28;20229;-54
2022/02/14 02:47:30;;;;;;;3.30;2.53;;;8.50;83.90;;;;;;5114789;28;20261;-54
2022/02/14 02:49:57;;;;;;;11.87;5.47;;;8.40;83.10;;;;;;5114671;28;20207;-54
2022/02/14 02:52:24;;;;;;;4.80;2.37;;;8.30;83.30;;;;;;5114697;28;20604;-54
2022/02/14 02:54:55;;;;;;;5.73;2.73;;;8.30;83.60;;;;;;5114509;28;20272;-54
2022/02/14 02:57:22;;;;;;;5.03;2.60;;;8.40;83.50;;;;;;5114676;28;20298;-55
2022/02/14 02:59:51;;;;;;;4.67;2.43;;;8.40;83.40;;;;;;5114522;28;20582;-54
2022/02/14 03:02:17;;;;;;;4.77;2.83;;;8.40;83.70;;;;;;5114576;28;20203;-54
2022/02/14 03:04:44;;;;;;;10.20;5.37;;;8.30;84.40;;;;;;5114878;28;20304;-57
2022/02/14 03:07:10;;;;;;;4.53;2.77;;;8.20;84.70;;;;;;5114226;28;20257;-58
2022/02/14 03:09:37;;;;;;;3.27;2.00;;;8.20;85.20;;;;;;5114186;28;20207;-58
2022/02/14 03:12:05;;;;;;;3.60;1.80;;;8.20;86.30;;;;;;5114186;28;20399;-57
2022/02/14 03:14:32;;;;;;;3.37;2.10;;;8.00;86.40;;;;;;5114408;28;20314;-58
2022/02/14 03:17:00;;;;;;;3.40;2.30;;;8.00;86.40;;;;;;5114294;28;20196;-57
2022/02/14 03:19:26;;;;;;;2.53;2.10;;;7.90;87.30;;;;;;5114246;28;20253;-57
2022/02/14 03:21:55;;;;;;;4.27;2.17;;;7.90;87.40;;;;;;5113768;28;20200;-58
2022/02/14 03:24:21;;;;;;;2.93;2.10;;;7.90;87.70;;;;;;5114899;28;20234;-60
2022/02/14 03:26:48;;;;;;;3.90;1.80;;;7.90;87.50;;;;;;5115231;28;20230;-59
2022/02/14 03:29:16;;;;;;;2.93;2.03;;;8.00;87.50;;;;;;5114014;28;20659;-57
2022/02/14 03:31:43;;;;;;;3.13;2.00;;;7.90;87.70;;;;;;5113921;28;20204;-57
2022/02/14 03:34:11;;;;;;;4.43;2.30;;;8.00;87.50;;;;;;5113958;28;20227;-57
2022/02/14 03:36:37;;;;;;;3.27;2.07;;;7.90;88.30;;;;;;5114123;28;20203;-59
2022/02/14 03:39:05;;;;;;;4.13;1.97;;;7.90;88.00;;;;;;5114017;28;20413;-58
2022/02/14 03:41:32;;;;;;;2.40;1.80;;;7.90;87.40;;;;;;5113639;28;20236;-59
2022/02/14 03:43:58;;;;;;;2.67;1.90;;;7.90;87.00;;;;;;5113510;28;20208;-59
2022/02/14 03:46:26;;;;;;;3.33;1.80;;;7.90;87.10;;;;;;5113299;28;20594;-58
2022/02/14 03:48:52;;;;;;;3.60;2.00;;;7.90;86.90;;;;;;5113429;28;20588;-59
2022/02/14 03:51:20;;;;;;;5.17;2.73;;;7.90;87.00;;;;;;5113444;28;20261;-57
2022/02/14 03:53:48;;;;;;;5.50;2.57;;;7.80;89.20;;;;;;5113537;28;20280;-57
2022/02/14 03:56:14;;;;;;;4.00;2.60;;;7.80;90.00;;;;;;5113367;28;20199;-58
2022/02/14 03:58:41;;;;;;;3.90;2.63;;;7.70;90.70;;;;;;5113376;28;20211;-59
2022/02/14 04:01:08;;;;;;;3.97;2.80;;;7.60;90.70;;;;;;5113072;28;20253;-58
2022/02/14 04:03:34;;;;;;;5.63;2.57;;;7.50;91.10;;;;;;5113120;28;20204;-59
2022/02/14 04:06:01;;;;;;;4.03;2.60;;;7.50;91.00;;;;;;5113071;28;20227;-59
2022/02/14 04:08:29;;;;;;;3.80;2.53;;;7.60;91.00;;;;;;5113241;28;20569;-59
2022/02/14 04:10:57;;;;;;;4.37;2.70;;;7.60;90.50;;;;;;5112864;28;20264;-59
2022/02/14 04:13:24;;;;;;;4.90;2.90;;;7.70;91.10;;;;;;5112718;28;20243;-58
2022/02/14 04:15:50;;;;;;;4.30;3.37;;;7.80;91.60;;;;;;5112940;28;20219;-58
2022/02/14 04:18:17;;;;;;;3.87;3.00;;;7.80;91.90;;;;;;5113161;28;20580;-58
2022/02/14 04:20:44;;;;;;;6.10;2.77;;;7.90;91.90;;;;;;5112963;28;20210;-58
2022/02/14 04:23:10;;;;;;;4.00;2.53;;;7.90;91.70;;;;;;5113069;28;20203;-59
2022/02/14 04:25:38;;;;;;;4.80;2.40;;;7.80;91.00;;;;;;5112653;28;20223;-59
2022/02/14 04:28:05;;;;;;;3.63;2.37;;;7.70;90.60;;;;;;5112736;28;20207;-58
2022/02/14 04:30:32;;;;;;;5.83;3.00;;;7.70;90.80;;;;;;5112472;28;20284;-59
2022/02/14 04:33:00;;;;;;;6.83;3.13;;;7.60;91.10;;;;;;5112951;28;20203;-58
2022/02/14 04:35:28;;;;;;;5.23;2.50;;;7.40;91.10;;;;;;5112897;28;20280;-58
2022/02/14 04:37:59;;;;;;;6.57;2.37;;;7.20;90.50;;;;;;5112880;28;20548;-58
2022/02/14 04:40:26;;;;;;;3.60;2.20;;;7.10;90.00;;;;;;5112262;28;20701;-59
2022/02/14 04:42:55;;;;;;;2.57;1.90;;;7.00;90.50;;;;;;5112657;28;20203;-58
2022/02/14 04:45:22;;;;;;;4.90;2.53;;;6.80;90.20;;;;;;5112296;28;20902;-59
2022/02/14 04:47:48;;;;;;;5.00;2.63;;;6.70;90.10;;;;;;5112653;28;20207;-59
2022/02/14 04:50:15;;;;;;;4.37;2.03;;;6.70;90.00;;;;;;5112402;28;20211;-58
2022/02/14 04:52:42;;;;;;;3.93;2.30;;;6.60;90.00;;;;;;5112641;28;20222;-58
2022/02/14 04:55:09;;;;;;;4.00;2.87;;;6.60;90.10;;;;;;5112551;28;20227;-57
2022/02/14 04:57:36;;;;;;;5.13;3.73;;;6.50;90.30;;;;;;5112397;28;20208;-59
2022/02/14 05:00:06;;;;;;;6.23;4.13;;;6.50;90.50;;;;;;5112492;28;20208;-58
2022/02/14 05:02:33;;;;;;;7.50;4.33;;;6.40;90.50;;;;;;5112575;28;20208;-58
2022/02/14 05:04:59;;;;;;;4.03;3.00;;;6.30;90.90;;;;;;5112389;28;20235;-58
2022/02/14 05:07:26;;;;;;;5.93;2.20;;;6.20;91.10;;;;;;5112709;28;20223;-58
2022/02/14 05:09:53;;;;;;;3.63;2.27;;;6.10;91.50;;;;;;5112429;28;20211;-57
2022/02/14 05:12:19;;;;;;;3.60;2.20;;;6.00;91.80;;;;;;5111948;28;20617;-58
2022/02/14 05:14:46;;;;;;;3.53;1.77;;;5.90;91.80;;;;;;5112353;28;20245;-59
2022/02/14 05:17:15;;;;;;;4.60;1.70;;;5.80;91.80;;;;;;5112069;28;20233;-58
2022/02/14 05:19:42;;;;;;;3.27;1.83;;;5.70;91.80;;;;;;5112249;28;20295;-58
2022/02/14 05:22:10;;;;;;;3.03;1.70;;;5.60;91.50;;;;;;5112008;28;20203;-58
2022/02/14 05:24:37;;;;;;;2.97;1.70;;;5.60;91.50;;;;;;5112051;28;20227;-58
2022/02/14 05:27:04;;;;;;;6.77;2.03;;;5.60;91.40;;;;;;5115838;28;20230;-57
2022/02/14 05:29:31;;;;;;;4.03;2.00;;;5.80;91.20;;;;;;5116199;28;20207;-58
2022/02/14 05:31:58;;;;;;;4.47;3.33;;;5.90;91.00;;;;;;5115985;28;20256;-57
2022/02/14 05:34:26;;;;;;;2.90;2.10;;;6.00;91.10;;;;;;5116133;28;20227;-59
2022/02/14 05:36:53;;;;;;;3.53;2.07;;;6.00;91.00;;;;;;5116155;28;20204;-58
2022/02/14 05:39:19;;;;;;;6.47;2.13;;;6.10;90.80;;;;;;5115964;28;20211;-58
2022/02/14 05:41:46;;;;;;;5.97;5.37;;;6.10;90.70;;;;;;5115978;28;20204;-58
2022/02/14 05:44:13;;;;;;;4.43;3.07;;;6.20;90.70;;;;;;5115980;28;20584;-58
2022/02/14 05:46:39;;;;;;;3.33;2.00;;;6.30;90.70;;;;;;5115756;28;20224;-59
2022/02/14 05:49:06;;;;;;;4.23;2.77;;;6.30;90.70;;;;;;5115921;28;20204;-59
2022/02/14 05:51:34;;;;;;;3.93;2.13;;;6.30;90.60;;;;;;5115901;28;20207;-59
2022/02/14 05:54:01;;;;;;;5.17;2.43;;;6.20;90.50;;;;;;5115728;28;20738;-57
2022/02/14 05:56:27;;;;;;;6.00;2.43;;;6.20;90.90;;;;;;5115653;28;20725;-58
2022/02/14 05:58:54;;;;;;;5.43;4.47;;;6.10;90.90;;;;;;5115700;28;20204;-57
2022/02/14 06:01:21;;;;;;;3.83;2.00;;;6.00;90.90;;;;;;5115359;28;20678;-58
2022/02/14 06:03:47;;;;;;;5.13;3.13;;;5.90;90.90;;;;;;5115168;28;20585;-58
2022/02/14 06:06:14;;;;;;;5.60;2.80;;;5.90;90.90;;;;;;5115441;28;20590;-58
2022/02/14 06:08:42;;;;;;;3.33;2.00;;;5.90;90.80;;;;;;5115249;28;20596;-59
2022/02/14 06:11:09;;;;;;;6.97;2.07;;;5.90;90.70;;;;;;5115297;28;20199;-58
2022/02/14 06:13:35;;;;;;;3.43;2.30;;;5.90;90.70;;;;;;5115567;28;20261;-59
2022/02/14 06:16:02;;;;;;;5.57;2.73;;;5.80;90.80;;;;;;5115776;28;20219;-58
2022/02/14 06:18:29;;;;;;;7.00;2.30;;;5.80;90.80;;;;;;5115391;28;20683;-59
2022/02/14 06:20:55;;;;;;;5.10;2.87;;;5.90;90.80;;;;;;5115032;28;20207;-59
2022/02/14 06:23:22;;;;;;;4.77;2.23;;;5.90;90.80;;;;;;5115233;28;20671;-59
2022/02/14 06:25:50;;;;;;;4.20;2.90;;;6.00;90.60;;;;;;5115272;28;20318;-58
2022/02/14 06:28:17;;;;;;;7.93;2.17;;;6.10;90.70;;;;;;5115310;28;20294;-58
2022/02/14 06:30:46;;;;;;;4.77;2.40;;;6.20;90.70;;;;;;5114998;28;20799;-58
2022/02/14 06:33:13;;;;;;;6.20;2.80;;;6.20;90.70;;;;;;5115404;28;20227;-58
2022/02/14 06:35:40;;;;;;;5.53;2.23;;;6.20;90.50;;;;;;5114518;28;20330;-58
2022/02/14 06:38:06;;;;;;;3.30;2.20;;;6.40;90.60;;;;;;5114892;28;20659;-59
2022/02/14 06:40:33;;;;;;;7.10;3.77;;;6.40;90.40;;;;;;5114723;28;20203;-56
2022/02/14 06:43:02;;;;;;;6.93;3.03;;;6.40;90.30;;;;;;5114776;28;20210;-58
2022/02/14 06:45:28;;;;;;;4.17;2.17;;;6.50;90.20;;;;;;5114622;28;20235;-58
2022/02/14 06:47:55;;;;;;;3.97;2.30;;;6.60;90.10;;;;;;5114293;28;20233;-57
2022/02/14 06:50:22;;;;;;;3.47;2.23;;;6.80;89.90;;;;;;5114176;28;20571;-58
2022/02/14 06:52:49;;;;;;;7.87;2.63;;;6.90;89.60;;;;;;5114683;28;20204;-58
2022/02/14 06:55:16;;;;;;;3.63;2.27;;;7.00;89.50;;;;;;5114456;28;20273;-57
2022/02/14 06:57:43;;;;;;;4.00;2.30;;;7.10;89.00;;;;;;5114344;28;20204;-58
2022/02/14 07:00:14;;;;;;;4.97;2.03;;;7.10;87.20;;;;;;5114320;28;20291;-58
2022/02/14 07:02:41;;;;;;;4.57;2.13;;;7.20;86.60;;;;;;5114216;28;20732;-58
2022/02/14 07:05:11;;;;;;;6.37;2.70;;;7.30;87.20;;;;;;5114198;28;20239;-58
2022/02/14 07:07:38;;;;;;;3.23;2.20;;;7.40;87.20;;;;;;5114417;28;20227;-57
2022/02/14 07:10:05;;;;;;;6.43;2.70;;;7.30;87.20;;;;;;5114435;28;20210;-57
2022/02/14 07:12:32;;;;;;;6.13;2.50;;;7.20;87.00;;;;;;5114055;28;20207;-58
2022/02/14 07:14:59;;;;;;;3.27;2.13;;;7.20;87.10;;;;;;5113859;28;20730;-58
2022/02/14 07:17:27;;;;;;;3.30;2.00;;;7.30;86.60;;;;;;5113689;28;20203;-57
2022/02/14 07:19:54;;;;;;;7.30;2.30;;;7.40;86.10;;;;;;5114017;28;20307;-57
2022/02/14 07:22:21;;;;;;;7.93;2.60;;;7.50;85.80;;;;;;5113896;28;20265;-58
2022/02/14 07:24:48;;;;;;;7.33;2.83;;;7.60;85.20;;;;;;5114045;28;20611;-58
2022/02/14 07:27:14;;;;;;;4.27;3.17;;;7.60;83.00;;;;;;5113833;28;20227;-57
2022/02/14 07:29:41;;;;;;;5.40;2.43;;;7.70;82.90;;;;;;5114165;28;20244;-58
2022/02/14 07:32:09;;;;;;;4.50;2.50;;;7.80;83.10;;;;;;5113966;28;20208;-58
2022/02/14 07:34:37;;;;;;;4.07;2.70;;;7.90;83.20;;;;;;5113729;28;20255;-58
2022/02/14 07:37:04;;;;;;;5.93;2.73;;;8.00;83.10;;;;;;5113655;28;20663;-58
2022/02/14 07:39:31;;;;;;;4.93;2.37;;;8.10;82.90;;;;;;5113876;28;20208;-59
2022/02/14 07:41:59;;;;;;;5.73;3.10;;;8.20;81.90;;;;;;5113741;28;20230;-59
2022/02/14 07:44:25;;;;;;;5.47;2.97;;;8.20;81.30;;;;;;5113750;28;20643;-59
2022/02/14 07:46:52;;;;;;;3.53;2.30;;;8.20;81.40;;;;;;5113695;28;20227;-59
2022/02/14 07:49:20;;;;;;;6.03;2.77;;;8.30;80.50;;;;;;5112740;28;20207;-57
2022/02/14 07:51:48;;;;;;;5.53;2.40;;;8.30;80.80;;;;;;5113546;28;20206;-58
2022/02/14 07:54:15;;;;;;;4.47;3.00;;;8.20;81.40;;;;;;5113506;28;20623;-58
2022/02/14 07:56:42;;;;;;;8.07;4.50;;;8.20;82.90;;;;;;5113296;28;20200;-58
2022/02/14 07:59:09;;;;;;;11.03;5.13;;;8.40;83.10;;;;;;5113603;28;20261;-57
2022/02/14 08:01:36;;;;;;;8.60;4.33;;;8.60;83.80;;;;;;5113468;28;20199;-58
2022/02/14 08:04:02;;;;;;;7.77;3.40;;;8.70;83.90;;;;;;5113226;28;20707;-55
2022/02/14 08:06:29;;;;;;;7.90;3.60;;;8.80;84.20;;;;;;5113483;28;20226;-55
2022/02/14 08:08:57;;;;;;;4.87;2.43;;;8.90;83.60;;;;;;5113400;28;20200;-55
2022/02/14 08:11:24;;;;;;;5.27;2.67;;;9.00;82.70;;;;;;5112837;28;20284;-55
2022/02/14 08:13:51;;;;;;;4.50;2.67;;;9.10;82.90;;;;;;5113006;28;20204;-55
2022/02/14 08:16:17;;;;;;;7.53;3.37;;;9.30;82.10;;;;;;5113541;28;20216;-55
2022/02/14 08:18:44;;;;;;;8.83;2.87;;;9.50;82.10;;;;;;5113400;28;20211;-56
2022/02/14 08:21:11;;;;;;;7.47;3.10;;;9.60;81.70;;;;;;5112808;28;20636;-56
2022/02/14 08:23:38;;;;;;;7.50;2.43;;;9.60;82.50;;;;;;5112896;28;20218;-56
2022/02/14 08:26:07;;;;;;;3.50;2.50;;;9.60;83.10;;;;;;5112719;28;20231;-56
2022/02/14 08:28:34;;;;;;;8.70;3.03;;;9.50;84.20;;;;;;5112792;28;20223;-56
2022/02/14 08:31:01;;;;;;;6.87;3.10;;;9.50;83.70;;;;;;5112744;28;20294;-56
2022/02/14 08:33:28;;;;;;;5.17;3.03;;;9.40;84.40;;;;;;5112858;28;20203;-56
2022/02/14 08:35:55;;;;;;;6.20;3.23;;;9.50;83.80;;;;;;5112597;28;20258;-56
2022/02/14 08:38:22;;;;;;;7.17;3.50;;;9.50;83.40;;;;;;5113156;28;20196;-56
2022/02/14 08:40:48;;;;;;;6.07;3.43;;;9.60;83.20;;;;;;5112311;28;20211;-56
2022/02/14 08:43:16;;;;;;;7.63;2.90;;;9.90;82.50;;;;;;5112775;28;20207;-56
2022/02/14 08:45:43;;;;;;;4.97;3.27;;;10.10;80.60;;;;;;5112535;28;20737;-56
2022/02/14 08:48:10;;;;;;;8.27;2.87;;;10.40;80.40;;;;;;5112842;28;20238;-56
2022/02/14 08:50:40;;;;;;;10.63;2.40;;;10.50;80.30;;;;;;5112547;28;20215;-56
2022/02/14 08:53:07;;;;;;;3.43;1.93;;;10.60;78.00;;;;;;5112775;28;20229;-56
2022/02/14 08:55:34;;;;;;;4.43;2.20;;;10.80;78.00;;;;;;5112654;28;20231;-56
2022/02/14 08:58:01;;;;;;;3.87;2.10;;;11.00;76.70;;;;;;5112488;28;20257;-56
2022/02/14 09:00:29;;;;;;;2.90;1.80;;;11.10;76.30;;;;;;5112443;28;20199;-56
2022/02/14 09:02:55;;;;;;;5.43;1.77;;;11.50;76.30;;;;;;5112586;28;20671;-56
2022/02/14 09:05:23;;;;;;;3.67;2.00;;;11.80;75.00;;;;;;5155508;22;20234;-60
2022/02/14 09:07:50;;;;;;;6.93;2.20;;;11.90;75.90;;;;;;5134935;28;20246;-59
2022/02/14 09:10:17;;;;;;;3.40;1.90;;;12.10;74.80;;;;;;5133106;28;20666;-60
2022/02/14 09:12:46;;;;;;;7.23;1.90;;;12.30;74.90;;;;;;5132949;28;20305;-59
2022/02/14 09:15:12;;;;;;;9.50;3.60;;;12.60;74.00;;;;;;5133123;28;20233;-60
2022/02/14 09:17:40;;;;;;;4.63;2.37;;;12.70;74.20;;;;;;5132915;28;20199;-59
2022/02/14 09:20:08;;;;;;;5.90;2.40;;;12.90;73.20;;;;;;5132842;28;20207;-60
2022/02/14 09:22:35;;;;;;;5.10;2.50;;;13.00;74.30;;;;;;5132945;28;20218;-60
2022/02/14 09:25:02;;;;;;;5.37;2.00;;;13.30;72.80;;;;;;5133011;28;20324;-59
2022/02/14 09:27:29;;;;;;;5.07;1.80;;;13.60;71.80;;;;;;5133016;28;20247;-60
2022/02/14 09:29:57;;;;;;;4.00;2.60;;;14.00;72.30;;;;;;5133087;28;20207;-59
2022/02/14 09:32:23;;;;;;;3.17;1.70;;;14.50;71.50;;;;;;5132641;28;20199;-60
2022/02/14 09:34:51;;;;;;;5.37;2.07;;;14.60;70.60;;;;;;5132993;28;20279;-60
2022/02/14 09:37:18;;;;;;;4.80;1.90;;;14.70;70.50;;;;;;5133048;28;20244;-60
2022/02/14 09:39:45;;;;;;;4.53;2.50;;;15.00;71.20;;;;;;5133318;28;20203;-60
2022/02/14 09:42:12;;;;;;;5.77;2.80;;;15.30;69.90;;;;;;5135396;28;20267;-60
2022/02/14 09:44:38;;;;;;;8.50;4.13;;;15.50;70.20;;;;;;5137829;28;20237;-60
2022/02/14 09:47:06;;;;;;;9.00;5.50;;;15.80;70.90;;;;;;5133229;28;20582;-60
2022/02/14 09:49:33;;;;;;;6.03;2.00;;;16.10;71.70;;;;;;5132973;28;20210;-59
2022/02/14 09:52:01;;;;;;;7.07;2.27;;;16.40;68.70;;;;;;5132375;28;20230;-58
2022/02/14 09:54:28;;;;;;;7.27;3.27;;;16.60;67.70;;;;;;5133321;28;20586;-57
2022/02/14 09:56:55;;;;;;;6.43;2.87;;;16.60;69.00;;;;;;5134518;28;20210;-58
2022/02/14 09:59:23;;;;;;;6.93;1.93;;;16.70;68.60;;;;;;5134836;28;20210;-58
2022/02/14 10:01:50;;;;;;;4.33;2.20;;;16.60;67.90;;;;;;5134768;28;20203;-58
2022/02/14 10:04:16;;;;;;;5.20;2.07;;;16.60;68.10;;;;;;5134211;28;20207;-58
2022/02/14 10:06:45;;;;;;;4.27;2.03;;;16.60;67.90;;;;;;5134066;28;20289;-58
2022/02/14 10:09:15;;;;;;;5.40;2.20;;;16.50;67.90;;;;;;5133821;28;20222;-58
2022/02/14 10:11:59;;;;;;;6.20;2.43;;;16.30;69.30;;;;;;5135698;27;20206;-58
2022/02/14 10:14:26;;;;;;;6.25;2.58;;;16.40;69.50;;;;;;5138380;27;20774;-58
2022/02/14 10:17:05;;;;;;;6.70;2.07;;;16.40;69.20;;;;;;5137576;27;20234;-58
2022/02/14 10:19:33;;;;;;;7.17;2.23;;;16.40;69.10;;;;;;5135984;27;20606;-58
2022/02/14 10:22:00;;;;;;;6.63;2.27;;;16.60;69.40;;;;;;5136504;27;20199;-59
2022/02/14 10:24:29;;;;;;;4.83;2.03;;;16.80;70.10;;;;;;5136554;27;20763;-59
2022/02/14 10:26:56;;;;;;;5.00;2.07;;;17.00;68.30;;;;;;5136711;27;20206;-58
2022/02/14 10:29:27;;;;;;;7.90;3.37;;;16.90;68.60;;;;;;5136563;27;20222;-59
2022/02/14 10:31:55;;;;;;;8.90;2.10;;;16.60;70.10;;;;;;5135847;27;20301;-57
2022/02/14 10:34:32;;;;;;;7.57;2.40;;;16.40;70.10;;;;;;5136036;27;20227;-60
2022/02/14 10:36:58;;;;;;;6.28;2.40;;;16.30;71.50;;;;;;5135803;27;20555;-60
2022/02/14 10:39:28;;;;;;;10.65;3.03;;;16.30;71.40;;;;;;5135375;27;20203;-60
2022/02/14 10:41:57;;;;;;;7.60;2.63;;;16.30;71.50;;;;;;5136304;27;20202;-60
2022/02/14 10:47:14;;;;;;;5.40;2.10;;;16.20;71.70;;;;;;5135500;27;20197;-60
2022/02/14 10:49:41;;;;;;;4.53;2.20;;;16.20;72.10;;;;;;5135545;27;20206;-60
2022/02/14 10:52:11;;;;;;;5.70;2.10;;;16.20;72.60;;;;;;5135121;27;20285;-60
2022/02/14 10:54:41;;;;;;;7.40;2.60;;;16.20;73.00;;;;;;5135439;27;20241;-60
2022/02/14 10:57:25;;;;;;;3.53;1.73;;;16.40;72.70;;;;;;5135562;27;20313;-60
2022/02/14 10:59:59;;;;;;;6.05;2.15;;;16.50;72.20;;;;;;5135621;27;20289;-61
2022/02/14 11:02:26;;;;;;;6.20;1.90;;;16.50;72.40;;;;;;5135028;27;20202;-60
2022/02/14 11:04:53;;;;;;;4.50;2.00;;;16.50;72.50;;;;;;5135418;27;20241;-60
2022/02/14 11:07:21;;;;;;;4.93;2.15;;;16.60;73.00;;;;;;5135461;27;20217;-59
2022/02/14 11:09:51;;;;;;;7.75;2.63;;;16.80;73.10;;;;;;5135597;27;20662;-60
2022/02/14 11:12:19;;;;;;;7.82;2.15;;;17.00;72.70;;;;;;5135308;27;20649;-60
2022/02/14 11:14:50;;;;;;;5.97;2.03;;;17.20;72.40;;;;;;5134724;27;20243;-59
2022/02/14 11:17:19;;;;;;;4.87;1.83;;;17.30;72.40;;;;;;5135086;27;20199;-60
2022/02/14 11:19:48;;;;;;;6.55;2.40;;;17.40;72.60;;;;;;5135080;27;20214;-61
2022/02/14 11:22:16;;;;;;;4.45;1.90;;;17.40;72.60;;;;;;5134590;27;20203;-61
2022/02/14 11:24:45;;;;;;;4.82;1.92;;;17.40;73.10;;;;;;5135039;27;20602;-61
2022/02/14 11:27:19;;;;;;;6.85;2.30;;;17.40;73.70;;;;;;5135337;27;20283;-61
2022/02/14 11:29:51;;;;;;;11.27;2.25;;;17.40;74.10;;;;;;5134986;27;20300;-62
2022/02/14 11:32:25;;;;;;;3.20;1.80;;;17.50;74.20;;;;;;5134976;27;20696;-60
2022/02/14 11:34:54;;;;;;;6.55;2.50;;;17.40;76.30;;;;;;5134542;27;20233;-61
2022/02/14 11:37:21;;;;;;;6.22;1.80;;;17.20;77.30;;;;;;5134541;27;20210;-60
2022/02/14 11:39:48;;;;;;;3.58;1.83;;;17.00;78.60;;;;;;5134226;27;20231;-60
2022/02/14 11:42:16;;;;;;;7.95;2.17;;;17.00;79.70;;;;;;5134470;27;20202;-61
2022/02/14 11:44:44;;;;;;;5.35;1.80;;;17.00;80.80;;;;;;5134207;27;20606;-60
2022/02/14 11:47:14;;;;;;;8.25;2.50;;;17.00;80.60;;;;;;5134499;27;20207;-60
2022/02/14 11:49:42;;;;;;;5.50;1.90;;;17.10;80.40;;;;;;5133808;27;20258;-60
2022/02/14 11:52:30;;;;;;;2.72;1.60;;;17.20;80.90;;;;;;5133682;27;20202;-60
2022/02/14 11:54:57;;;;;;;6.40;2.53;;;17.30;81.30;;;;;;5133973;27;20223;-62
2022/02/14 11:57:31;;;;;;;4.47;1.50;;;17.40;81.30;;;;;;5134240;27;20203;-60
2022/02/14 12:00:23;;;;;;;4.23;1.50;;;17.40;82.20;;;;;;5134248;27;20207;-62
2022/02/14 12:03:00;;;;;;;4.68;1.50;;;17.30;82.90;;;;;;5133635;27;20297;-60
2022/02/14 12:05:41;;;;;;;5.07;1.52;;;17.30;83.30;;;;;;5133731;27;20628;-60
2022/02/14 12:08:08;;;;;;;7.10;4.13;;;17.30;83.50;;;;;;5134015;27;20230;-60
2022/02/14 12:10:45;;;;;;;4.75;1.63;;;17.30;83.70;;;;;;5133808;27;20210;-59
2022/02/14 12:13:16;;;;;;;3.63;1.65;;;17.30;83.80;;;;;;5133514;27;20198;-61
2022/02/14 12:21:23;;;;;;;3.40;1.50;;;17.30;84.70;;;;;;5133471;27;20262;-61
2022/02/14 12:23:52;;;;;;;2.93;1.50;;;17.30;84.60;;;;;;5133727;27;20207;-61
2022/02/14 12:26:20;;;;;;;6.38;1.58;;;17.00;85.40;;;;;;5133490;27;20719;-61
2022/02/14 12:29:32;;;;;;;5.10;2.00;;;16.90;86.00;;;;;;5133115;27;20715;-61
2022/02/14 12:31:45;;;;;;;4.57;2.33;;;16.90;86.40;;;;;;5133160;27;20202;-61
2022/02/14 12:34:12;;;;;;;4.35;1.70;;;16.90;86.30;;;;;;5133076;27;20726;-61
2022/02/14 12:36:38;;;;;;;4.75;1.70;;;16.80;86.40;;;;;;5125145;27;20457;-60
2022/02/14 12:39:05;;;;;;;3.40;1.50;;;16.60;86.80;;;;;;5113138;28;20206;-60
2022/02/14 12:41:34;;;;;;;2.40;1.35;;;16.50;87.30;;;;;;5112022;28;20239;-59
2022/02/14 12:44:02;;;;;;;4.03;1.40;;;16.40;88.00;;;;;;5113379;28;20204;-60
2022/02/14 12:46:32;;;;;;;3.90;1.57;;;16.30;88.20;;;;;;5112748;28;20203;-61
2022/02/14 12:49:03;;;;;;;6.40;1.43;;;16.20;88.10;;;;;;5113272;28;20246;-61
2022/02/14 12:51:32;;;;;;;4.87;1.60;;;16.20;88.60;;;;;;5112951;28;20207;-61
2022/02/14 12:54:00;;;;;;;4.57;1.57;;;16.30;88.50;;;;;;5112757;28;20199;-61
2022/02/14 12:56:28;;;;;;;4.93;2.20;;;16.30;88.40;;;;;;5113028;28;20218;-61
2022/02/14 12:58:56;;;;;;;5.07;1.80;;;16.40;88.30;;;;;;5113056;28;20207;-61
2022/02/14 13:01:27;;;;;;;2.17;1.40;;;16.40;88.40;;;;;;5113409;28;20637;-61
2022/02/14 13:03:55;;;;;;;2.90;1.60;;;16.30;88.30;;;;;;5113020;28;20259;-61